createdAt,value
2022-11-24T00:00:38.729Z,93684.97
2022-11-24T00:01:40.313Z,93694.81
2022-11-24T00:02:41.927Z,93687.19
2022-11-24T00:03:45.673Z,93682.19
2022-11-24T00:04:47.657Z,93676.75
2022-11-24T00:05:49.166Z,93692.03
2022-11-24T00:06:50.787Z,93692.03
2022-11-24T00:07:52.592Z,93690.56
2022-11-24T00:08:54.879Z,93689.81
2022-11-24T00:09:56.414Z,93686.28
2022-11-24T00:11:04.583Z,93691.69
2022-11-24T00:12:06.148Z,93697.63
2022-11-24T00:13:07.698Z,93687.91
2022-11-24T00:14:10.162Z,93696.47
2022-11-24T00:15:11.691Z,93701.34
2022-11-24T00:16:16.572Z,93695.00
2022-11-24T00:17:18.169Z,93690.16
2022-11-24T00:18:19.684Z,93683.81
2022-11-24T00:19:21.214Z,93678.25
2022-11-24T00:20:22.756Z,93681.03
2022-11-24T00:21:26.120Z,93688.09
2022-11-24T00:22:27.649Z,93690.72
2022-11-24T00:23:29.231Z,93684.38
2022-11-24T00:24:31.071Z,93693.50
2022-11-24T00:25:32.889Z,93692.03
2022-11-24T00:26:37.319Z,93687.91
2022-11-24T00:27:38.925Z,93687.91
2022-11-24T00:28:41.483Z,93687.91
2022-11-24T00:29:43.020Z,93687.34
2022-11-24T00:30:44.630Z,93691.47
2022-11-24T00:31:46.168Z,93693.69
2022-11-24T00:32:47.729Z,93690.88
2022-11-24T00:33:51.042Z,93697.81
2022-11-24T00:34:52.569Z,93699.28
2022-11-24T00:35:56.159Z,93695.00
2022-11-24T00:36:57.905Z,93685.28
2022-11-24T00:37:59.470Z,93686.63
2022-11-24T00:39:04.253Z,93693.50
2022-11-24T00:40:06.461Z,93703.53
2022-11-24T00:41:08.133Z,93702.06
2022-11-24T00:42:09.701Z,93697.22
2022-11-24T00:43:11.241Z,93697.94
2022-11-24T00:44:12.897Z,93695.16
2022-11-24T00:45:14.481Z,93702.06
2022-11-24T00:46:16.403Z,93700.75
2022-11-24T00:47:18.080Z,93697.22
2022-11-24T00:48:19.675Z,93703.22
2022-11-24T00:49:21.220Z,93708.81
2022-11-24T00:50:23.073Z,93712.91
2022-11-24T00:51:27.960Z,93715.88
2022-11-24T00:52:29.513Z,93718.09
2022-11-24T00:53:31.582Z,93713.25
2022-11-24T00:54:33.271Z,93726.50
2022-11-24T00:55:35.008Z,93716.03
2022-11-24T00:56:36.632Z,93707.47
2022-11-24T00:57:38.164Z,93710.47
2022-11-24T00:58:40.251Z,93701.16
2022-11-24T00:59:41.763Z,93706.00
2022-11-24T01:00:43.543Z,93708.06
2022-11-24T01:01:45.212Z,93708.97
2022-11-24T01:02:47.236Z,93718.84
2022-11-24T01:03:49.137Z,93711.19
2022-11-24T01:04:50.708Z,93712.50
2022-11-24T01:05:52.255Z,93711.19
2022-11-24T01:06:53.806Z,93711.94
2022-11-24T01:07:55.428Z,93711.94
2022-11-24T01:08:57.910Z,93707.06
2022-11-24T01:09:59.413Z,93711.78
2022-11-24T01:11:08.162Z,93706.59
2022-11-24T01:12:09.653Z,93706.91
2022-11-24T01:13:12.542Z,93705.44
2022-11-24T01:14:14.047Z,93706.19
2022-11-24T01:15:15.585Z,93706.19
2022-11-24T01:16:21.836Z,93710.28
2022-11-24T01:17:23.426Z,93704.69
2022-11-24T01:18:24.956Z,93693.50
2022-11-24T01:19:26.525Z,93686.44
2022-11-24T01:20:28.059Z,93692.03
2022-11-24T01:21:29.632Z,93700.28
2022-11-24T01:22:31.175Z,93696.16
2022-11-24T01:23:32.759Z,93708.81
2022-11-24T01:24:34.409Z,93701.75
2022-11-24T01:25:39.917Z,93704.91
2022-11-24T01:26:42.269Z,93709.38
2022-11-24T01:27:43.907Z,93714.25
2022-11-24T01:28:47.349Z,93717.03
2022-11-24T01:29:49.319Z,93714.78
2022-11-24T01:31:01.734Z,93712.38
2022-11-24T01:32:03.446Z,93713.50
2022-11-24T01:33:05.190Z,93714.03
2022-11-24T01:34:07.164Z,93702.72
2022-11-24T01:35:09.369Z,93715.38
2022-11-24T01:36:11.068Z,93716.69
2022-11-24T01:37:12.652Z,93708.31
2022-11-24T01:38:14.182Z,93712.38
2022-11-24T01:39:15.746Z,93713.72
2022-11-24T01:40:17.257Z,93713.88
2022-11-24T01:41:21.268Z,93717.97
2022-11-24T01:42:22.925Z,93719.31
2022-11-24T01:43:24.436Z,93710.19
2022-11-24T01:44:28.292Z,93712.25
2022-11-24T01:45:29.795Z,93716.34
2022-11-24T01:46:44.088Z,93711.91
2022-11-24T01:47:45.622Z,93709.84
2022-11-24T01:49:02.877Z,93713.06
2022-11-24T01:50:05.272Z,93714.84
2022-11-24T01:51:18.880Z,93707.47
2022-11-24T01:52:36.700Z,93709.34
2022-11-24T01:53:45.778Z,93714.53
2022-11-24T01:54:54.899Z,93708.94
2022-11-24T01:55:56.738Z,93708.94
2022-11-24T01:57:05.439Z,93711.59
2022-11-24T01:58:15.536Z,93703.75
2022-11-24T01:59:21.104Z,93713.06
2022-11-24T02:00:22.765Z,93704.09
2022-11-24T02:01:25.235Z,93707.47
2022-11-24T02:02:29.544Z,93700.56
2022-11-24T02:03:35.681Z,93711.41
2022-11-24T02:04:38.027Z,93715.84
2022-11-24T02:05:46.179Z,93709.94
2022-11-24T02:06:48.294Z,93709.66
2022-11-24T02:07:52.158Z,93710.25
2022-11-24T02:08:56.838Z,93706.72
2022-11-24T02:10:05.110Z,93711.59
2022-11-24T02:11:07.149Z,93709.66
2022-11-24T02:12:09.527Z,93714.53
2022-11-24T02:13:11.430Z,93714.53
2022-11-24T02:14:16.562Z,93712.31
2022-11-24T02:15:19.576Z,93714.53
2022-11-24T02:16:21.143Z,93722.91
2022-11-24T02:17:22.883Z,93711.59
2022-11-24T02:18:24.410Z,93722.03
2022-11-24T02:19:35.201Z,93714.59
2022-11-24T02:20:36.959Z,93713.47
2022-11-24T02:21:38.514Z,93725.56
2022-11-24T02:23:05.767Z,93716.66
2022-11-24T02:24:12.244Z,93731.69
2022-11-24T02:25:37.463Z,93718.31
2022-11-24T02:26:44.224Z,93729.50
2022-11-24T02:27:50.724Z,93728.16
2022-11-24T02:28:55.631Z,93724.63
2022-11-24T02:29:57.217Z,93721.09
2022-11-24T02:31:00.830Z,93724.47
2022-11-24T02:32:06.967Z,93726.50
2022-11-24T02:33:11.242Z,93723.16
2022-11-24T02:34:12.744Z,93719.78
2022-11-24T02:35:15.089Z,93717.16
2022-11-24T02:36:16.722Z,93723.31
2022-11-24T02:37:18.268Z,93723.91
2022-11-24T02:38:28.650Z,93725.38
2022-11-24T02:39:30.184Z,93722.75
2022-11-24T02:40:32.281Z,93719.78
2022-11-24T02:41:33.821Z,93725.38
2022-11-24T02:42:42.808Z,93720.94
2022-11-24T02:43:52.969Z,93726.50
2022-11-24T02:44:58.926Z,93723.91
2022-11-24T02:46:00.543Z,93725.97
2022-11-24T02:47:10.353Z,93725.03
2022-11-24T02:48:13.306Z,93726.50
2022-11-24T02:49:16.174Z,93719.06
2022-11-24T02:50:17.749Z,93725.22
2022-11-24T02:51:19.528Z,93721.69
2022-11-24T02:52:21.062Z,93734.34
2022-11-24T02:53:22.667Z,93727.44
2022-11-24T02:54:24.344Z,93723.91
2022-11-24T02:55:25.934Z,93725.97
2022-11-24T02:56:27.617Z,93722.44
2022-11-24T02:57:29.157Z,93722.44
2022-11-24T02:58:30.778Z,93720.38
2022-11-24T02:59:32.439Z,93725.22
2022-11-24T03:00:34.004Z,93720.94
2022-11-24T03:01:35.571Z,93718.72
2022-11-24T03:02:37.243Z,93722.84
2022-11-24T03:03:39.043Z,93725.78
2022-11-24T03:04:40.566Z,93720.94
2022-11-24T03:05:42.097Z,93722.44
2022-11-24T03:06:43.768Z,93721.69
2022-11-24T03:07:45.414Z,93729.16
2022-11-24T03:08:46.999Z,93731.94
2022-11-24T03:09:48.801Z,93739.75
2022-11-24T03:10:50.390Z,93725.03
2022-11-24T03:11:52.083Z,93730.47
2022-11-24T03:12:54.363Z,93735.47
2022-11-24T03:13:55.929Z,93741.06
2022-11-24T03:14:57.498Z,93737.34
2022-11-24T03:15:59.086Z,93731.78
2022-11-24T03:17:00.670Z,93738.88
2022-11-24T03:18:02.393Z,93737.34
2022-11-24T03:19:04.490Z,93730.31
2022-11-24T03:20:06.482Z,93734.56
2022-11-24T03:21:08.016Z,93735.88
2022-11-24T03:22:09.593Z,93733.84
2022-11-24T03:23:11.324Z,93735.56
2022-11-24T03:24:12.920Z,93737.03
2022-11-24T03:25:14.520Z,93738.69
2022-11-24T03:26:18.764Z,93740.00
2022-11-24T03:27:20.954Z,93739.25
2022-11-24T03:28:22.495Z,93744.84
2022-11-24T03:29:24.158Z,93748.94
2022-11-24T03:30:25.873Z,93755.84
2022-11-24T03:31:27.593Z,93756.75
2022-11-24T03:32:29.587Z,93759.72
2022-11-24T03:33:31.212Z,93762.50
2022-11-24T03:34:33.158Z,93761.75
2022-11-24T03:35:34.838Z,93763.81
2022-11-24T03:36:36.377Z,93766.78
2022-11-24T03:37:37.954Z,93764.00
2022-11-24T03:38:39.489Z,93769.75
2022-11-24T03:39:41.057Z,93764.16
2022-11-24T03:40:42.603Z,93762.84
2022-11-24T03:41:44.139Z,93768.44
2022-11-24T03:42:45.669Z,93764.16
2022-11-24T03:43:47.248Z,93764.91
2022-11-24T03:44:48.761Z,93766.94
2022-11-24T03:45:50.442Z,93766.22
2022-11-24T03:46:52.133Z,93773.88
2022-11-24T03:47:53.667Z,93765.47
2022-11-24T03:48:55.188Z,93765.63
2022-11-24T03:49:56.751Z,93770.47
2022-11-24T03:51:00.264Z,93768.28
2022-11-24T03:52:07.641Z,93769.75
2022-11-24T03:53:09.515Z,93769.75
2022-11-24T03:54:11.093Z,93776.06
2022-11-24T03:55:12.652Z,93777.97
2022-11-24T03:56:14.657Z,93770.31
2022-11-24T03:57:16.180Z,93773.88
2022-11-24T03:58:17.812Z,93774.00
2022-11-24T03:59:19.375Z,93772.53
2022-11-24T04:00:20.944Z,93776.81
2022-11-24T04:01:22.576Z,93776.06
2022-11-24T04:02:24.187Z,93776.66
2022-11-24T04:03:26.140Z,93780.91
2022-11-24T04:04:27.669Z,93790.78
2022-11-24T04:05:29.854Z,93795.06
2022-11-24T04:06:31.559Z,93800.66
2022-11-24T04:07:33.137Z,93801.94
2022-11-24T04:08:34.757Z,93801.94
2022-11-24T04:09:36.295Z,93799.94
2022-11-24T04:10:39.421Z,93796.38
2022-11-24T04:11:59.247Z,93799.16
2022-11-24T04:13:00.752Z,93801.94
2022-11-24T04:14:02.284Z,93803.28
2022-11-24T04:15:04.102Z,93803.28
2022-11-24T04:16:06.390Z,93803.28
2022-11-24T04:17:07.987Z,93808.31
2022-11-24T04:18:10.661Z,93806.06
2022-11-24T04:19:12.570Z,93811.09
2022-11-24T04:20:15.076Z,93808.84
2022-11-24T04:21:16.581Z,93814.44
2022-11-24T04:22:18.098Z,93813.13
2022-11-24T04:23:19.684Z,93814.44
2022-11-24T04:24:21.213Z,93820.78
2022-11-24T04:25:22.739Z,93811.84
2022-11-24T04:26:24.321Z,93816.69
2022-11-24T04:27:25.893Z,93811.84
2022-11-24T04:28:27.427Z,93816.69
2022-11-24T04:29:28.959Z,93813.13
2022-11-24T04:30:30.518Z,93815.94
2022-11-24T04:31:32.113Z,93815.19
2022-11-24T04:32:33.692Z,93817.97
2022-11-24T04:33:35.221Z,93806.81
2022-11-24T04:34:37.069Z,93820.03
2022-11-24T04:35:38.707Z,93815.19
2022-11-24T04:36:41.021Z,93820.03
2022-11-24T04:37:42.633Z,93819.31
2022-11-24T04:39:23.202Z,93818.56
2022-11-24T04:40:07.718Z,93818.56
2022-11-24T04:41:09.822Z,93814.44
2022-11-24T04:42:11.376Z,93815.94
2022-11-24T04:43:12.897Z,93822.09
2022-11-24T04:44:14.559Z,93819.69
2022-11-24T04:45:16.127Z,93819.69
2022-11-24T04:46:17.826Z,93819.69
2022-11-24T04:47:22.141Z,93814.13
2022-11-24T04:48:23.695Z,93822.50
2022-11-24T04:49:25.235Z,93813.97
2022-11-24T04:50:26.818Z,93806.88
2022-11-24T04:51:28.324Z,93817.31
2022-11-24T04:52:30.508Z,93819.38
2022-11-24T04:53:32.137Z,93820.84
2022-11-24T04:54:33.875Z,93816.75
2022-11-24T04:55:38.677Z,93819.38
2022-11-24T04:56:41.554Z,93817.16
2022-11-24T04:57:43.088Z,93824.59
2022-11-24T04:58:47.557Z,93822.00
2022-11-24T04:59:50.188Z,93823.47
2022-11-24T05:00:51.735Z,93824.94
2022-11-24T05:01:53.336Z,93828.66
2022-11-24T05:02:55.311Z,93821.56
2022-11-24T05:03:57.421Z,93826.41
2022-11-24T05:04:59.007Z,93825.88
2022-11-24T05:06:00.610Z,93827.75
2022-11-24T05:07:02.188Z,93830.53
2022-11-24T05:08:03.984Z,93835.38
2022-11-24T05:09:06.838Z,93831.66
2022-11-24T05:10:27.362Z,93823.47
2022-11-24T05:11:28.904Z,93828.31
2022-11-24T05:12:31.338Z,93835.97
2022-11-24T05:13:33.781Z,93830.38
2022-11-24T05:14:35.537Z,93835.97
2022-11-24T05:15:38.842Z,93838.75
2022-11-24T05:16:40.757Z,93835.38
2022-11-24T05:17:42.391Z,93829.63
2022-11-24T05:18:43.965Z,93829.06
2022-11-24T05:19:45.524Z,93835.38
2022-11-24T05:20:47.068Z,93827.59
2022-11-24T05:21:48.633Z,93824.94
2022-11-24T05:22:50.242Z,93833.72
2022-11-24T05:23:51.855Z,93834.13
2022-11-24T05:24:53.515Z,93833.38
2022-11-24T05:26:03.472Z,93833.97
2022-11-24T05:27:05.042Z,93838.25
2022-11-24T05:28:11.179Z,93834.72
2022-11-24T05:29:12.839Z,93845.13
2022-11-24T05:30:14.572Z,93838.06
2022-11-24T05:31:16.222Z,93844.41
2022-11-24T05:32:17.864Z,93850.72
2022-11-24T05:33:20.209Z,93850.00
2022-11-24T05:34:21.915Z,93852.03
2022-11-24T05:35:24.044Z,93852.03
2022-11-24T05:36:44.177Z,93846.63
2022-11-24T05:37:45.841Z,93850.72
2022-11-24T05:38:47.398Z,93857.78
2022-11-24T05:39:48.945Z,93860.59
2022-11-24T05:40:50.500Z,93856.31
2022-11-24T05:41:52.274Z,93861.91
2022-11-24T05:42:53.849Z,93854.81
2022-11-24T05:43:55.366Z,93860.59
2022-11-24T05:44:57.563Z,93861.91
2022-11-24T05:46:00.530Z,93860.41
2022-11-24T05:47:02.106Z,93863.97
2022-11-24T05:48:06.124Z,93861.91
2022-11-24T05:49:07.703Z,93866.16
2022-11-24T05:50:11.876Z,93862.63
2022-11-24T05:51:13.516Z,93863.38
2022-11-24T05:52:15.546Z,93862.63
2022-11-24T05:53:17.043Z,93864.69
2022-11-24T05:54:18.626Z,93865.97
2022-11-24T05:55:20.183Z,93861.16
2022-11-24T05:56:21.723Z,93868.22
2022-11-24T05:57:23.274Z,93865.44
2022-11-24T05:58:24.825Z,93859.09
2022-11-24T05:59:26.342Z,93860.41
2022-11-24T06:00:29.434Z,93856.13
2022-11-24T06:01:31.051Z,93871.03
2022-11-24T06:02:32.847Z,93865.44
2022-11-24T06:03:34.712Z,93865.97
2022-11-24T06:04:37.136Z,93866.75
2022-11-24T06:05:39.295Z,93867.31
2022-11-24T06:06:40.937Z,93868.03
2022-11-24T06:07:42.654Z,93874.94
2022-11-24T06:08:44.284Z,93872.34
2022-11-24T06:09:45.985Z,93876.59
2022-11-24T06:10:47.521Z,93871.75
2022-11-24T06:11:49.677Z,93872.50
2022-11-24T06:12:51.397Z,93871.19
2022-11-24T06:13:52.975Z,93877.34
2022-11-24T06:14:54.724Z,93876.59
2022-11-24T06:15:59.531Z,93875.88
2022-11-24T06:17:01.485Z,93881.63
2022-11-24T06:18:03.619Z,93878.81
2022-11-24T06:19:05.224Z,93878.66
2022-11-24T06:20:08.107Z,93884.25
2022-11-24T06:21:11.317Z,93871.03
2022-11-24T06:22:13.520Z,93885.72
2022-11-24T06:23:15.102Z,93882.94
2022-11-24T06:24:16.669Z,93887.19
2022-11-24T06:25:18.338Z,93887.19
2022-11-24T06:26:20.213Z,93889.25
2022-11-24T06:27:21.828Z,93891.31
2022-11-24T06:28:23.359Z,93892.78
2022-11-24T06:29:24.931Z,93892.63
2022-11-24T06:30:26.481Z,93894.69
2022-11-24T06:31:28.145Z,93901.75
2022-11-24T06:32:29.712Z,93899.50
2022-11-24T06:33:32.940Z,93898.22
2022-11-24T06:34:34.774Z,93905.84
2022-11-24T06:35:36.514Z,93905.84
2022-11-24T06:36:39.248Z,93905.84
2022-11-24T06:37:41.163Z,93909.94
2022-11-24T06:38:42.801Z,93912.19
2022-11-24T06:39:44.371Z,93913.66
2022-11-24T06:40:46.722Z,93912.19
2022-11-24T06:41:50.294Z,93924.63
2022-11-24T06:42:52.670Z,93926.16
2022-11-24T06:43:54.346Z,93928.94
2022-11-24T06:44:55.928Z,93926.16
2022-11-24T06:45:57.780Z,93931.72
2022-11-24T06:46:59.600Z,93928.94
2022-11-24T06:48:01.153Z,93930.41
2022-11-24T06:49:02.980Z,93936.00
2022-11-24T06:50:05.083Z,93941.41
2022-11-24T06:51:08.526Z,93943.66
2022-11-24T06:52:10.297Z,93941.59
2022-11-24T06:53:12.732Z,93942.31
2022-11-24T06:54:16.640Z,93941.19
2022-11-24T06:55:18.221Z,93951.63
2022-11-24T06:56:20.747Z,93957.97
2022-11-24T06:57:22.321Z,93950.91
2022-11-24T06:58:23.834Z,93955.72
2022-11-24T06:59:26.555Z,93957.22
2022-11-24T07:00:29.436Z,93969.69
2022-11-24T07:01:31.181Z,93967.66
2022-11-24T07:02:32.847Z,93965.41
2022-11-24T07:03:34.429Z,93968.41
2022-11-24T07:04:36.233Z,93966.16
2022-11-24T07:05:38.114Z,93961.31
2022-11-24T07:06:42.686Z,93968.22
2022-11-24T07:07:44.412Z,93975.28
2022-11-24T07:08:46.419Z,93978.84
2022-11-24T07:09:47.982Z,93972.47
2022-11-24T07:10:49.525Z,93982.53
2022-11-24T07:11:51.103Z,93985.91
2022-11-24T07:12:52.743Z,93982.53
2022-11-24T07:13:59.619Z,93980.31
2022-11-24T07:15:01.793Z,93985.31
2022-11-24T07:16:17.227Z,93990.56
2022-11-24T07:17:18.783Z,93992.97
2022-11-24T07:18:20.296Z,93990.75
2022-11-24T07:19:25.111Z,93993.53
2022-11-24T07:20:27.090Z,94003.41
2022-11-24T07:21:30.587Z,93995.19
2022-11-24T07:22:32.286Z,94005.44
2022-11-24T07:23:33.883Z,94002.06
2022-11-24T07:24:35.579Z,93999.28
2022-11-24T07:25:37.301Z,94004.88
2022-11-24T07:26:40.113Z,93992.97
2022-11-24T07:27:41.680Z,94002.66
2022-11-24T07:28:43.242Z,94004.13
2022-11-24T07:29:44.755Z,94001.91
2022-11-24T07:30:46.291Z,94002.66
2022-11-24T07:31:47.909Z,94000.78
2022-11-24T07:32:49.496Z,94006.19
2022-11-24T07:33:53.101Z,94014.56
2022-11-24T07:34:54.624Z,94002.06
2022-11-24T07:35:59.659Z,94007.50
2022-11-24T07:37:01.195Z,94002.28
2022-11-24T07:38:02.718Z,94014.91
2022-11-24T07:39:06.945Z,94014.91
2022-11-24T07:40:09.350Z,94016.41
2022-11-24T07:41:12.993Z,94022.00
2022-11-24T07:42:14.533Z,94022.00
2022-11-24T07:43:20.205Z,94021.25
2022-11-24T07:44:22.027Z,94016.41
2022-11-24T07:45:23.578Z,94020.50
2022-11-24T07:46:25.230Z,94024.63
2022-11-24T07:47:26.785Z,94019.78
2022-11-24T07:48:28.358Z,94024.03
2022-11-24T07:49:29.912Z,94024.03
2022-11-24T07:50:31.472Z,94022.72
2022-11-24T07:51:33.337Z,94020.69
2022-11-24T07:52:34.907Z,94015.13
2022-11-24T07:53:37.557Z,94032.03
2022-11-24T07:54:39.135Z,94032.03
2022-11-24T07:55:40.850Z,94031.28
2022-11-24T07:56:42.384Z,94040.41
2022-11-24T07:57:44.093Z,94040.25
2022-11-24T07:58:51.204Z,94048.81
2022-11-24T07:59:54.180Z,94047.47
2022-11-24T08:00:56.144Z,94043.22
2022-11-24T08:01:57.760Z,94050.13
2022-11-24T08:02:59.349Z,94046.19
2022-11-24T08:04:02.076Z,94046.94
2022-11-24T08:05:03.800Z,94051.78
2022-11-24T08:07:27.276Z,94054.75
2022-11-24T08:08:33.392Z,94057.38
2022-11-24T08:09:34.929Z,94058.84
2022-11-24T08:10:36.489Z,94059.59
2022-11-24T08:11:38.081Z,94058.84
2022-11-24T08:12:41.000Z,94062.19
2022-11-24T08:13:43.561Z,94062.19
2022-11-24T08:14:45.119Z,94064.44
2022-11-24T08:15:46.690Z,94058.84
2022-11-24T08:16:48.351Z,94064.44
2022-11-24T08:17:49.951Z,94071.50
2022-11-24T08:18:53.812Z,94072.81
2022-11-24T08:19:55.370Z,94067.78
2022-11-24T08:21:00.337Z,94073.94
2022-11-24T08:22:01.912Z,94072.81
2022-11-24T08:23:03.563Z,94075.41
2022-11-24T08:24:05.624Z,94072.63
2022-11-24T08:25:07.808Z,94078.41
2022-11-24T08:26:15.981Z,94087.34
2022-11-24T08:27:18.939Z,94082.53
2022-11-24T08:28:21.206Z,94081.19
2022-11-24T08:29:22.840Z,94080.47
2022-11-24T08:30:24.552Z,94080.47
2022-11-24T08:31:33.019Z,94084.16
2022-11-24T08:32:35.059Z,94082.69
2022-11-24T08:33:37.170Z,94084.16
2022-11-24T08:34:39.143Z,94088.28
2022-11-24T08:35:40.753Z,94079.88
2022-11-24T08:36:42.309Z,94081.19
2022-11-24T08:37:44.117Z,94089.41
2022-11-24T08:38:46.328Z,94089.41
2022-11-24T08:39:47.921Z,94078.22
2022-11-24T08:40:49.477Z,94091.44
2022-11-24T08:41:51.092Z,94096.50
2022-11-24T08:42:56.817Z,94096.50
2022-11-24T08:43:58.628Z,94097.22
2022-11-24T08:45:04.974Z,94097.22
2022-11-24T08:46:20.193Z,94096.84
2022-11-24T08:47:21.799Z,94102.97
2022-11-24T08:48:23.313Z,94105.03
2022-11-24T08:49:24.945Z,94105.78
2022-11-24T08:50:26.718Z,94110.63
2022-11-24T08:51:28.806Z,94114.91
2022-11-24T08:52:30.582Z,94110.63
2022-11-24T08:53:32.061Z,94109.31
2022-11-24T08:54:33.881Z,94107.81
2022-11-24T08:55:36.753Z,94114.16
2022-11-24T08:56:38.304Z,94116.22
2022-11-24T08:57:39.855Z,94117.53
2022-11-24T08:58:42.288Z,94116.22
2022-11-24T08:59:43.955Z,94120.31
2022-11-24T09:00:45.532Z,94128.13
2022-11-24T09:01:47.273Z,94122.94
2022-11-24T09:02:58.777Z,94125.56
2022-11-24T09:04:00.587Z,94126.84
2022-11-24T09:05:02.332Z,94121.81
2022-11-24T09:06:04.053Z,94124.59
2022-11-24T09:07:06.114Z,94126.66
2022-11-24T09:08:07.648Z,94130.19
2022-11-24T09:09:10.303Z,94131.50
2022-11-24T09:10:12.170Z,94128.72
2022-11-24T09:11:15.180Z,94132.97
2022-11-24T09:12:16.803Z,94134.47
2022-11-24T09:13:18.540Z,94127.38
2022-11-24T09:14:20.142Z,94134.47
2022-11-24T09:15:21.988Z,94140.03
2022-11-24T09:16:26.558Z,94140.03
2022-11-24T09:17:28.347Z,94135.97
2022-11-24T09:18:30.567Z,94135.97
2022-11-24T09:19:32.789Z,94137.44
2022-11-24T09:20:34.600Z,94141.56
2022-11-24T09:21:39.310Z,94138.75
2022-11-24T09:22:42.994Z,94137.44
2022-11-24T09:23:46.136Z,94141.56
2022-11-24T09:24:47.854Z,94132.97
2022-11-24T09:25:49.452Z,94137.25
2022-11-24T09:26:50.998Z,94140.03
2022-11-24T09:27:52.650Z,94129.63
2022-11-24T09:28:55.873Z,94135.97
2022-11-24T09:29:57.418Z,94138.19
2022-11-24T09:31:06.569Z,94136.50
2022-11-24T09:32:08.146Z,94135.38
2022-11-24T09:33:09.770Z,94146.00
2022-11-24T09:34:14.772Z,94135.38
2022-11-24T09:35:16.520Z,94144.72
2022-11-24T09:36:19.005Z,94141.91
2022-11-24T09:37:20.571Z,94135.00
2022-11-24T09:38:22.954Z,94140.41
2022-11-24T09:39:24.673Z,94139.84
2022-11-24T09:40:26.845Z,94136.31
2022-11-24T09:41:50.279Z,94140.03
2022-11-24T09:43:03.025Z,94146.00
2022-11-24T09:44:12.942Z,94147.66
2022-11-24T09:46:03.809Z,94147.31
2022-11-24T09:47:03.696Z,94142.06
2022-11-24T09:48:15.640Z,94147.50
2022-11-24T09:49:28.232Z,94148.25
2022-11-24T09:50:33.920Z,94147.50
2022-11-24T09:51:38.007Z,94146.94
2022-11-24T09:52:47.082Z,94153.09
2022-11-24T09:53:54.487Z,94151.78
2022-11-24T09:55:01.179Z,94147.50
2022-11-24T09:56:15.599Z,94148.06
2022-11-24T09:57:20.188Z,94148.97
2022-11-24T09:58:32.473Z,94143.41
2022-11-24T09:59:34.313Z,94153.09
2022-11-24T10:00:37.423Z,94153.09
2022-11-24T10:01:41.888Z,94149.38
2022-11-24T10:02:47.912Z,94153.09
2022-11-24T10:03:54.090Z,94150.84
2022-11-24T10:04:56.677Z,94147.66
2022-11-24T10:06:01.388Z,94144.88
2022-11-24T10:07:05.630Z,94157.56
2022-11-24T10:08:22.385Z,94158.50
2022-11-24T10:09:32.089Z,94156.03
2022-11-24T10:11:00.125Z,94163.16
2022-11-24T10:12:13.753Z,94165.75
2022-11-24T10:13:18.133Z,94166.50
2022-11-24T10:14:25.608Z,94160.91
2022-11-24T10:15:51.984Z,94162.59
2022-11-24T10:17:06.110Z,94170.25
2022-11-24T10:18:22.683Z,94153.28
2022-11-24T10:19:36.421Z,94166.31
2022-11-24T10:20:41.736Z,94161.84
2022-11-24T10:22:08.265Z,94168.56
2022-11-24T10:23:39.712Z,94167.44
2022-11-24T10:24:56.858Z,94169.84
2022-11-24T10:26:00.489Z,94165.00
2022-11-24T10:27:23.922Z,94166.88
2022-11-24T10:28:40.667Z,94172.47
2022-11-24T10:29:43.947Z,94166.88
2022-11-24T10:30:45.605Z,94170.41
2022-11-24T10:31:52.253Z,94172.28
2022-11-24T10:33:01.442Z,94169.66
2022-11-24T10:34:32.580Z,94172.09
2022-11-24T10:35:45.397Z,94170.41
2022-11-24T10:37:03.186Z,94174.31
2022-11-24T10:38:16.573Z,94164.66
2022-11-24T10:39:29.146Z,94164.28
2022-11-24T10:41:05.800Z,94162.03
2022-11-24T10:42:16.169Z,94161.63
2022-11-24T10:43:17.732Z,94165.75
2022-11-24T10:44:19.299Z,94161.63
2022-11-24T10:45:22.385Z,94161.28
2022-11-24T10:46:27.261Z,94156.81
2022-11-24T10:47:30.283Z,94162.03
2022-11-24T10:48:40.536Z,94168.75
2022-11-24T10:49:47.105Z,94169.66
2022-11-24T10:50:48.757Z,94162.75
2022-11-24T10:52:06.121Z,94159.59
2022-11-24T10:53:25.700Z,94163.16
2022-11-24T10:54:27.955Z,94167.97
2022-11-24T10:55:54.468Z,94162.41
2022-11-24T10:56:56.141Z,94162.94
2022-11-24T10:58:15.843Z,94169.31
2022-11-24T10:59:34.441Z,94158.31
2022-11-24T11:00:36.760Z,94160.34
2022-11-24T11:01:38.423Z,94163.88
2022-11-24T11:02:40.596Z,94161.84
2022-11-24T11:03:55.027Z,94161.28
2022-11-24T11:04:56.856Z,94160.34
2022-11-24T11:06:13.234Z,94164.66
2022-11-24T11:07:20.753Z,94166.13
2022-11-24T11:08:25.277Z,94164.44
2022-11-24T11:09:26.872Z,94161.63
2022-11-24T11:10:28.429Z,94163.88
2022-11-24T11:11:30.373Z,94161.63
2022-11-24T11:12:47.646Z,94167.41
2022-11-24T11:14:00.077Z,94164.63
2022-11-24T11:15:26.906Z,94169.84
2022-11-24T11:16:39.123Z,94160.91
2022-11-24T11:17:44.964Z,94168.53
2022-11-24T11:18:49.516Z,94165.00
2022-11-24T11:19:58.412Z,94169.47
2022-11-24T11:21:03.984Z,94173.00
2022-11-24T11:22:11.280Z,94162.38
2022-11-24T11:23:26.889Z,94175.44
2022-11-24T11:24:28.917Z,94166.09
2022-11-24T11:25:35.754Z,94176.94
2022-11-24T11:26:38.763Z,94175.81
2022-11-24T11:27:42.019Z,94167.59
2022-11-24T11:28:57.726Z,94174.13
2022-11-24T11:31:40.191Z,94174.69
2022-11-24T11:34:29.835Z,94176.16
2022-11-24T11:35:33.671Z,94180.28
2022-11-24T11:36:39.519Z,94178.75
2022-11-24T11:37:41.597Z,94181.00
2022-11-24T11:38:45.355Z,94185.88
2022-11-24T11:39:51.654Z,94184.00
2022-11-24T11:40:53.611Z,94184.00
2022-11-24T11:42:37.929Z,94183.63
2022-11-24T11:43:41.082Z,94184.34
2022-11-24T11:45:06.559Z,94184.00
2022-11-24T11:46:08.127Z,94186.41
2022-11-24T11:47:26.928Z,94179.53
2022-11-24T11:48:43.171Z,94186.63
2022-11-24T11:49:47.671Z,94185.50
2022-11-24T11:51:22.341Z,94190.91
2022-11-24T11:52:23.652Z,94184.00
2022-11-24T11:53:47.199Z,94185.13
2022-11-24T11:55:26.979Z,94182.16
2022-11-24T11:56:33.052Z,94186.97
2022-11-24T11:57:43.323Z,94182.50
2022-11-24T11:58:50.914Z,94185.88
2022-11-24T12:00:16.251Z,94186.25
2022-11-24T12:01:37.030Z,94197.59
2022-11-24T12:02:54.334Z,94180.28
2022-11-24T12:04:22.197Z,94184.94
2022-11-24T12:05:29.360Z,94188.28
2022-11-24T12:06:51.094Z,94188.84
2022-11-24T12:08:13.407Z,94195.91
2022-11-24T12:09:26.821Z,94194.06
2022-11-24T12:11:00.312Z,94195.91
2022-11-24T12:12:16.804Z,94197.03
2022-11-24T12:13:33.357Z,94199.47
2022-11-24T12:15:11.127Z,94200.75
2022-11-24T12:16:41.665Z,94194.06
2022-11-24T12:18:04.314Z,94198.53
2022-11-24T12:19:33.167Z,94192.22
2022-11-24T12:21:13.149Z,94198.53
2022-11-24T12:22:39.809Z,94201.34
2022-11-24T12:23:53.362Z,94200.75
2022-11-24T12:25:03.430Z,94193.69
2022-11-24T12:26:24.648Z,94196.13
2022-11-24T12:27:44.125Z,94195.56
2022-11-24T12:29:07.855Z,94195.56
2022-11-24T12:30:13.372Z,94200.59
2022-11-24T12:31:38.142Z,94203.75
2022-11-24T12:33:04.465Z,94195.00
2022-11-24T12:34:16.235Z,94192.03
2022-11-24T12:35:29.872Z,94197.81
2022-11-24T12:37:05.237Z,94189.22
2022-11-24T12:38:18.917Z,94189.22
2022-11-24T12:39:26.292Z,94200.03
2022-11-24T12:40:47.281Z,94193.50
2022-11-24T12:41:58.399Z,94202.06
2022-11-24T12:43:19.329Z,94214.22
2022-11-24T12:44:29.647Z,94199.66
2022-11-24T12:45:31.167Z,94211.94
2022-11-24T12:46:35.730Z,94206.34
2022-11-24T12:48:12.829Z,94209.34